Time;durP1;ratioP1;P1;durP2;ratioP2;P2;SDS_P1;SDS_P2;PMS_P1;PMS_P2;Temp;Humidity;BMP_temperature;BMP_pressure;BME280_temperature;BME280_humidity;BME280_pressure;Samples;Min_cycle;Max_cycle;Signal;HPM_P1;HPM_P2
2021/09/25 00:00:20;;;;;;;4.07;2.35;;;18.10;92.70;;;;;;5030647;28;20029;-75
2021/09/25 00:02:46;;;;;;;4.65;2.65;;;18.10;92.70;;;;;;5031708;28;20076;-74
2021/09/25 00:05:12;;;;;;;5.22;2.83;;;18.10;92.70;;;;;;5031395;28;20034;-74
2021/09/25 00:07:38;;;;;;;4.55;2.63;;;18.10;92.70;;;;;;5031197;28;20040;-74
2021/09/25 00:10:05;;;;;;;4.18;2.47;;;18.10;92.70;;;;;;5031712;28;20036;-74
2021/09/25 00:12:31;;;;;;;6.15;2.60;;;18.10;92.70;;;;;;5029589;28;20109;-74
2021/09/25 00:14:57;;;;;;;4.65;2.42;;;18.10;92.70;;;;;;5031637;28;20032;-74
2021/09/25 00:17:22;;;;;;;4.88;2.85;;;18.10;92.70;;;;;;5029475;28;20033;-74
2021/09/25 00:19:48;;;;;;;4.35;2.45;;;18.10;92.70;;;;;;5031737;28;20034;-75
2021/09/25 00:22:14;;;;;;;5.63;2.53;;;18.10;92.70;;;;;;5031238;28;20150;-74
2021/09/25 00:24:40;;;;;;;5.07;2.33;;;18.00;92.60;;;;;;5029606;28;20059;-75
2021/09/25 00:27:06;;;;;;;4.28;2.55;;;18.00;92.70;;;;;;5030003;28;20025;-76
2021/09/25 00:29:32;;;;;;;4.40;2.20;;;18.00;92.70;;;;;;5030773;28;20022;-76
2021/09/25 00:31:57;;;;;;;4.97;2.40;;;18.00;92.70;;;;;;5030165;28;20048;-77
2021/09/25 00:34:23;;;;;;;5.55;2.20;;;18.00;92.60;;;;;;5031127;28;20112;-76
2021/09/25 00:36:49;;;;;;;4.78;2.28;;;18.00;92.60;;;;;;5032064;28;20042;-74
2021/09/25 00:39:15;;;;;;;3.20;1.90;;;18.00;92.60;;;;;;5035045;28;20044;-74
2021/09/25 00:41:40;;;;;;;4.13;2.47;;;18.00;92.50;;;;;;5033039;28;20018;-77
2021/09/25 00:44:06;;;;;;;6.10;2.10;;;18.00;92.40;;;;;;5034930;28;20028;-77
2021/09/25 00:46:33;;;;;;;4.07;2.13;;;18.00;92.40;;;;;;5034219;28;20029;-76
2021/09/25 00:48:59;;;;;;;6.07;2.40;;;18.00;92.40;;;;;;5034765;28;20053;-75
2021/09/25 00:51:25;;;;;;;3.80;1.90;;;18.00;92.40;;;;;;5034005;28;20055;-75
2021/09/25 00:53:50;;;;;;;3.22;1.88;;;18.00;92.40;;;;;;5033265;28;20440;-75
2021/09/25 00:56:17;;;;;;;3.80;1.75;;;18.00;92.40;;;;;;5034624;28;20030;-75
2021/09/25 00:58:43;;;;;;;3.00;1.88;;;18.00;92.30;;;;;;5034134;28;20065;-75
2021/09/25 01:01:09;;;;;;;7.40;2.20;;;17.90;92.30;;;;;;5034566;28;20022;-75
2021/09/25 01:03:35;;;;;;;3.40;2.17;;;17.90;92.30;;;;;;5032582;28;20028;-75
2021/09/25 01:06:01;;;;;;;4.53;2.00;;;17.90;92.30;;;;;;5033123;28;20054;-75
2021/09/25 01:08:27;;;;;;;5.63;2.15;;;17.90;92.30;;;;;;5033507;28;20482;-75
2021/09/25 01:10:54;;;;;;;3.58;2.25;;;17.90;92.20;;;;;;5034661;28;20071;-74
2021/09/25 01:13:24;;;;;;;5.50;2.22;;;18.00;92.20;;;;;;5034368;28;20090;-75
2021/09/25 01:15:51;;;;;;;4.60;2.20;;;18.00;92.20;;;;;;5032913;28;20032;-77
2021/09/25 01:18:17;;;;;;;5.55;1.95;;;17.90;92.10;;;;;;5032518;28;20033;-75
2021/09/25 01:20:44;;;;;;;4.47;1.95;;;17.90;92.10;;;;;;5032097;28;20053;-75
2021/09/25 01:23:10;;;;;;;3.40;2.05;;;18.00;92.10;;;;;;5032815;28;20081;-75
2021/09/25 01:25:36;;;;;;;4.03;2.17;;;17.90;92.10;;;;;;5033506;28;20024;-75
2021/09/25 01:28:02;;;;;;;6.13;2.53;;;17.90;92.10;;;;;;5034007;28;20029;-75
2021/09/25 01:30:28;;;;;;;3.03;1.90;;;17.90;92.10;;;;;;5033431;28;20071;-75
2021/09/25 01:32:54;;;;;;;2.88;1.58;;;17.90;92.10;;;;;;5033954;28;20025;-75
2021/09/25 01:35:23;;;;;;;3.33;2.00;;;18.00;92.10;;;;;;5032546;28;20032;-75
2021/09/25 01:37:52;;;;;;;5.35;2.30;;;18.00;92.10;;;;;;5033869;28;20137;-75
2021/09/25 01:40:18;;;;;;;2.72;1.27;;;17.90;92.10;;;;;;5034102;28;20029;-75
2021/09/25 01:42:45;;;;;;;5.38;2.60;;;17.90;92.10;;;;;;5031854;28;20056;-75
2021/09/25 01:45:12;;;;;;;6.63;2.67;;;17.90;92.20;;;;;;5049309;28;20453;-75
2021/09/25 01:47:41;;;;;;;5.25;2.85;;;17.90;92.20;;;;;;5032809;28;20026;-75
2021/09/25 01:50:10;;;;;;;7.18;3.20;;;17.90;92.20;;;;;;5033640;28;20097;-75
2021/09/25 01:52:36;;;;;;;5.10;2.80;;;17.90;92.50;;;;;;5032975;28;20024;-75
2021/09/25 01:55:03;;;;;;;5.65;3.03;;;17.90;92.20;;;;;;5033257;28;20025;-75
2021/09/25 01:57:29;;;;;;;4.78;2.35;;;17.90;92.20;;;;;;5048074;28;20025;-75
2021/09/25 01:59:55;;;;;;;7.03;2.88;;;17.90;92.30;;;;;;5033452;28;20048;-74
2021/09/25 02:02:20;;;;;;;4.93;2.47;;;17.90;92.30;;;;;;5033116;28;20021;-75
2021/09/25 02:04:47;;;;;;;5.03;2.47;;;17.90;92.30;;;;;;5032502;28;20382;-75
2021/09/25 02:07:14;;;;;;;6.07;3.28;;;17.80;92.30;;;;;;5033277;28;20100;-75
2021/09/25 02:09:40;;;;;;;7.93;3.05;;;17.90;92.40;;;;;;5032675;28;20025;-74
2021/09/25 02:12:06;;;;;;;6.22;3.10;;;17.80;92.40;;;;;;5032953;28;20025;-75
2021/09/25 02:14:32;;;;;;;6.32;3.03;;;17.80;92.40;;;;;;5032622;28;20037;-75
2021/09/25 02:16:57;;;;;;;6.00;2.97;;;17.80;92.50;;;;;;5031952;28;20087;-76
2021/09/25 02:19:23;;;;;;;7.45;3.50;;;17.80;92.50;;;;;;5032838;28;20021;-75
2021/09/25 02:21:50;;;;;;;6.43;3.47;;;17.80;92.50;;;;;;5032119;28;20382;-75
2021/09/25 02:24:16;;;;;;;7.45;3.05;;;17.80;92.50;;;;;;5032981;28;20101;-75
2021/09/25 02:26:42;;;;;;;8.77;3.58;;;17.80;92.50;;;;;;5032417;28;20454;-75
2021/09/25 02:29:08;;;;;;;6.22;3.25;;;17.80;92.50;;;;;;5048213;28;20424;-75
2021/09/25 02:31:34;;;;;;;7.85;3.17;;;17.80;92.50;;;;;;5032124;28;20018;-75
2021/09/25 02:33:59;;;;;;;9.32;3.70;;;17.80;92.50;;;;;;5031558;28;20017;-75
2021/09/25 02:36:25;;;;;;;6.57;3.43;;;17.80;92.60;;;;;;5032831;28;20045;-75
2021/09/25 02:38:50;;;;;;;6.75;3.22;;;17.80;92.60;;;;;;5032414;28;20037;-75
2021/09/25 02:41:16;;;;;;;7.40;3.28;;;17.70;92.60;;;;;;5032748;28;20101;-75
2021/09/25 02:43:43;;;;;;;6.57;3.55;;;17.70;92.60;;;;;;5032053;28;20026;-75
2021/09/25 02:46:08;;;;;;;6.47;3.25;;;17.70;92.60;;;;;;5033002;28;20106;-76
2021/09/25 02:48:34;;;;;;;8.02;3.75;;;17.70;92.70;;;;;;5030707;28;20076;-74
2021/09/25 02:51:00;;;;;;;8.25;3.45;;;17.70;92.70;;;;;;5032620;28;20024;-75
2021/09/25 02:53:25;;;;;;;7.85;3.30;;;17.60;92.80;;;;;;5032317;28;20517;-75
2021/09/25 02:55:52;;;;;;;6.53;3.00;;;17.60;92.90;;;;;;5031834;28;20029;-76
2021/09/25 02:58:18;;;;;;;7.43;2.95;;;17.50;92.90;;;;;;5032320;28;20068;-75
2021/09/25 03:00:44;;;;;;;5.90;3.15;;;17.50;92.90;;;;;;5029915;28;20063;-74
2021/09/25 03:03:09;;;;;;;7.10;3.20;;;17.50;92.90;;;;;;5030955;28;20028;-74
2021/09/25 03:05:35;;;;;;;7.10;3.30;;;17.50;93.00;;;;;;5030416;28;20025;-74
2021/09/25 03:08:01;;;;;;;7.38;4.03;;;17.50;93.00;;;;;;5031866;28;20106;-74
2021/09/25 03:10:27;;;;;;;6.45;3.30;;;17.40;93.00;;;;;;5032323;28;20104;-76
2021/09/25 03:12:52;;;;;;;7.60;3.53;;;17.40;93.10;;;;;;5030273;28;20108;-74
2021/09/25 03:15:18;;;;;;;8.75;3.90;;;17.40;93.10;;;;;;5032426;28;20119;-74
2021/09/25 03:17:43;;;;;;;7.70;3.58;;;17.40;93.10;;;;;;5031430;28;20078;-74
2021/09/25 03:20:10;;;;;;;6.80;3.08;;;17.30;93.10;;;;;;5030716;28;20025;-74
2021/09/25 03:22:36;;;;;;;9.25;3.67;;;17.40;93.20;;;;;;5031419;28;20013;-74
2021/09/25 03:25:07;;;;;;;7.95;3.53;;;17.30;93.10;;;;;;5030737;28;20492;-75
2021/09/25 03:27:33;;;;;;;9.32;3.83;;;17.40;93.20;;;;;;5031528;28;20029;-74
2021/09/25 03:29:59;;;;;;;7.18;3.15;;;17.40;93.10;;;;;;5031956;28;20443;-75
2021/09/25 03:32:24;;;;;;;8.73;3.88;;;17.40;93.10;;;;;;5031672;28;20021;-75
2021/09/25 03:34:50;;;;;;;7.00;3.50;;;17.40;93.10;;;;;;5029978;28;20848;-75
2021/09/25 03:37:17;;;;;;;7.50;4.10;;;17.40;93.10;;;;;;5030476;28;20045;-75
2021/09/25 03:39:43;;;;;;;9.48;4.20;;;17.30;93.10;;;;;;5031303;28;20075;-75
2021/09/25 03:42:08;;;;;;;9.07;3.97;;;17.40;93.10;;;;;;5032035;28;20033;-75
2021/09/25 03:44:34;;;;;;;7.22;3.42;;;17.40;93.10;;;;;;5031004;28;20104;-75
2021/09/25 03:47:00;;;;;;;7.03;3.40;;;17.40;93.10;;;;;;5031778;28;20035;-75
2021/09/25 03:49:25;;;;;;;7.47;4.10;;;17.40;93.10;;;;;;5031775;28;20048;-75
2021/09/25 03:51:51;;;;;;;6.32;3.63;;;17.40;93.10;;;;;;5029919;28;20060;-75
2021/09/25 03:54:17;;;;;;;9.10;3.83;;;17.40;93.10;;;;;;5031619;28;20052;-75
2021/09/25 03:56:42;;;;;;;7.03;4.15;;;17.40;93.10;;;;;;5031386;28;20036;-75
2021/09/25 03:59:08;;;;;;;7.40;3.67;;;17.50;93.10;;;;;;5030014;28;20132;-75
2021/09/25 04:01:34;;;;;;;8.80;4.43;;;17.40;93.00;;;;;;5029774;28;20017;-75
2021/09/25 04:03:59;;;;;;;8.35;4.35;;;17.50;93.30;;;;;;5030350;28;20098;-75
2021/09/25 04:06:26;;;;;;;7.55;3.75;;;17.50;93.00;;;;;;5031302;28;20111;-75
2021/09/25 04:08:52;;;;;;;7.10;3.72;;;17.50;93.00;;;;;;5031004;28;20147;-75
2021/09/25 04:11:18;;;;;;;7.55;3.72;;;17.50;93.00;;;;;;5031708;28;20103;-75
2021/09/25 04:13:44;;;;;;;9.35;4.05;;;17.50;93.00;;;;;;5050013;28;20053;-75
2021/09/25 04:16:10;;;;;;;9.43;4.80;;;17.50;93.00;;;;;;5034151;28;20013;-75
2021/09/25 04:18:35;;;;;;;8.98;3.65;;;17.50;93.00;;;;;;5034443;28;20079;-74
2021/09/25 04:21:01;;;;;;;9.23;4.43;;;17.50;93.10;;;;;;5034101;28;20103;-74
2021/09/25 04:23:27;;;;;;;10.25;4.95;;;17.50;93.00;;;;;;5034000;28;20044;-75
2021/09/25 04:25:52;;;;;;;9.65;4.40;;;17.50;93.00;;;;;;5033465;28;20512;-75
2021/09/25 04:28:18;;;;;;;10.40;4.88;;;17.50;93.00;;;;;;5035450;28;20025;-75
2021/09/25 04:30:44;;;;;;;8.05;4.10;;;17.50;93.00;;;;;;5034657;28;20468;-75
2021/09/25 04:33:11;;;;;;;8.23;4.43;;;17.50;93.00;;;;;;5034837;28;20018;-74
2021/09/25 04:35:38;;;;;;;8.27;4.13;;;17.50;93.00;;;;;;5034193;28;20022;-74
2021/09/25 04:38:05;;;;;;;8.77;4.28;;;17.50;93.10;;;;;;5034687;28;20036;-74
2021/09/25 04:40:30;;;;;;;8.00;3.63;;;17.40;93.10;;;;;;5034922;28;20466;-74
2021/09/25 04:42:57;;;;;;;9.45;4.05;;;17.50;93.10;;;;;;5034320;28;20029;-74
2021/09/25 04:45:23;;;;;;;8.25;3.53;;;17.50;93.10;;;;;;5032472;28;20026;-74
2021/09/25 04:47:50;;;;;;;10.55;4.47;;;17.40;93.00;;;;;;5014526;28;20079;-75
2021/09/25 04:50:17;;;;;;;8.23;4.00;;;17.40;93.10;;;;;;5013624;28;20417;-74
2021/09/25 04:52:43;;;;;;;8.68;4.28;;;17.30;93.10;;;;;;5014344;28;20489;-74
2021/09/25 04:55:10;;;;;;;8.45;4.40;;;17.30;93.20;;;;;;5014665;28;20026;-74
2021/09/25 04:57:36;;;;;;;10.98;4.45;;;17.30;93.20;;;;;;5014771;28;20041;-74
2021/09/25 05:00:02;;;;;;;10.05;4.00;;;17.30;93.20;;;;;;5014402;28;20110;-74
2021/09/25 05:02:28;;;;;;;9.63;4.47;;;17.40;93.20;;;;;;5014376;28;20025;-76
2021/09/25 05:04:54;;;;;;;7.45;4.10;;;17.30;93.10;;;;;;5014360;28;20025;-76
2021/09/25 05:07:19;;;;;;;8.15;4.18;;;17.30;93.10;;;;;;5014836;28;20030;-76
2021/09/25 05:09:45;;;;;;;8.60;4.40;;;17.30;93.10;;;;;;5014049;28;20025;-74
2021/09/25 05:12:11;;;;;;;7.82;4.13;;;17.30;93.20;;;;;;5014765;28;20389;-74
2021/09/25 05:14:38;;;;;;;8.00;3.95;;;17.30;93.10;;;;;;5014478;28;20057;-76
2021/09/25 05:17:04;;;;;;;8.70;4.38;;;17.30;93.10;;;;;;5013141;28;20114;-76
2021/09/25 05:19:29;;;;;;;8.73;3.67;;;17.30;93.10;;;;;;5029704;28;20014;-76
2021/09/25 05:21:55;;;;;;;7.68;3.80;;;17.30;93.20;;;;;;5013493;28;20030;-76
2021/09/25 05:24:21;;;;;;;8.20;3.45;;;17.30;93.20;;;;;;5014013;28;20034;-76
2021/09/25 05:26:48;;;;;;;7.00;3.95;;;17.30;93.20;;;;;;5013706;28;20037;-76
2021/09/25 05:29:14;;;;;;;7.32;3.67;;;17.30;93.10;;;;;;5014256;28;20030;-74
2021/09/25 05:31:39;;;;;;;6.45;2.97;;;17.40;93.20;;;;;;5029140;28;20034;-75
2021/09/25 05:34:05;;;;;;;9.65;3.97;;;17.30;93.10;;;;;;5012800;28;20026;-75
2021/09/25 05:36:31;;;;;;;8.60;3.80;;;17.40;93.10;;;;;;5013763;28;20085;-75
2021/09/25 05:38:56;;;;;;;6.45;3.75;;;17.30;93.10;;;;;;5013493;28;20364;-75
2021/09/25 05:41:22;;;;;;;10.00;4.25;;;17.30;93.10;;;;;;5013993;28;20156;-75
2021/09/25 05:43:53;;;;;;;7.13;3.92;;;17.40;93.20;;;;;;5028628;28;20018;-75
2021/09/25 05:46:19;;;;;;;10.27;3.97;;;17.40;93.10;;;;;;5014053;28;20026;-75
2021/09/25 05:48:47;;;;;;;7.25;2.78;;;17.40;93.10;;;;;;5011968;28;20037;-75
2021/09/25 05:51:14;;;;;;;7.93;3.80;;;17.40;93.10;;;;;;5012535;28;20374;-75
2021/09/25 05:53:40;;;;;;;7.43;3.80;;;17.40;93.10;;;;;;5028997;28;20037;-75
2021/09/25 05:56:06;;;;;;;7.35;3.83;;;17.40;93.10;;;;;;5014005;28;20026;-75
2021/09/25 05:58:32;;;;;;;7.75;3.85;;;17.40;93.10;;;;;;5012395;28;20036;-75
2021/09/25 06:00:57;;;;;;;6.85;3.28;;;17.40;93.10;;;;;;5013177;28;20034;-75
2021/09/25 06:03:23;;;;;;;6.72;3.42;;;17.30;93.10;;;;;;5013665;28;20029;-75
2021/09/25 06:05:49;;;;;;;7.78;3.75;;;17.30;93.10;;;;;;5012917;28;20029;-75
2021/09/25 06:08:15;;;;;;;7.13;3.45;;;17.30;93.20;;;;;;5013510;28;20084;-75
2021/09/25 06:10:41;;;;;;;7.03;3.55;;;17.40;93.20;;;;;;5012225;28;20014;-75
2021/09/25 06:13:07;;;;;;;8.65;3.92;;;17.40;93.10;;;;;;5012561;28;20442;-75
2021/09/25 06:15:34;;;;;;;10.25;3.97;;;17.40;93.10;;;;;;5013362;28;20022;-75
2021/09/25 06:18:00;;;;;;;6.45;3.47;;;17.40;93.10;;;;;;5012820;28;20079;-75
2021/09/25 06:20:25;;;;;;;7.35;3.90;;;17.40;93.10;;;;;;5012966;28;20034;-75
2021/09/25 06:22:51;;;;;;;8.35;3.85;;;17.40;93.10;;;;;;5012689;28;20073;-76
2021/09/25 06:25:17;;;;;;;8.30;4.22;;;17.30;93.10;;;;;;5013370;28;20026;-77
2021/09/25 06:27:43;;;;;;;6.68;3.45;;;17.30;93.20;;;;;;5011980;28;20496;-77
2021/09/25 06:30:09;;;;;;;6.95;3.53;;;17.40;93.20;;;;;;5013195;28;20049;-77
2021/09/25 06:32:35;;;;;;;7.20;3.10;;;17.40;93.20;;;;;;5013230;28;20062;-77
2021/09/25 06:35:02;;;;;;;7.35;3.60;;;17.40;93.10;;;;;;5011476;28;20398;-77
2021/09/25 06:37:29;;;;;;;6.53;3.35;;;17.40;93.10;;;;;;5012592;28;20046;-77
2021/09/25 06:39:55;;;;;;;6.03;3.28;;;17.50;93.00;;;;;;5012369;28;20018;-76
2021/09/25 06:42:21;;;;;;;6.35;3.72;;;17.50;93.00;;;;;;5028092;28;20033;-76
2021/09/25 06:44:46;;;;;;;7.53;3.85;;;17.50;93.00;;;;;;5012067;28;20104;-76
2021/09/25 06:47:12;;;;;;;7.47;3.75;;;17.50;93.00;;;;;;5013086;28;20108;-75
2021/09/25 06:49:38;;;;;;;11.13;4.30;;;17.50;93.00;;;;;;5013060;28;20433;-76
2021/09/25 06:52:05;;;;;;;7.38;3.75;;;17.50;92.90;;;;;;5012271;28;20100;-74
2021/09/25 06:54:32;;;;;;;9.48;3.88;;;17.60;93.00;;;;;;5013184;28;20124;-77
2021/09/25 06:56:58;;;;;;;8.73;4.07;;;17.60;92.90;;;;;;5012150;28;20080;-77
2021/09/25 06:59:24;;;;;;;7.82;3.65;;;17.60;92.90;;;;;;5011553;28;20018;-76
2021/09/25 07:01:49;;;;;;;10.23;4.00;;;17.60;92.90;;;;;;5010746;28;20029;-77
2021/09/25 07:04:15;;;;;;;6.75;3.78;;;17.70;92.80;;;;;;5011621;28;20022;-74
2021/09/25 07:06:41;;;;;;;10.65;4.30;;;17.70;92.80;;;;;;5012284;28;20103;-74
2021/09/25 07:09:07;;;;;;;8.60;3.80;;;17.80;92.70;;;;;;5011917;28;20482;-74
2021/09/25 07:11:33;;;;;;;5.75;3.05;;;17.80;92.70;;;;;;5027782;28;20105;-74
2021/09/25 07:13:59;;;;;;;8.68;3.88;;;17.90;92.60;;;;;;5011786;28;20022;-74
2021/09/25 07:16:25;;;;;;;8.20;3.47;;;17.90;92.60;;;;;;5012026;28;20157;-74
2021/09/25 07:18:50;;;;;;;10.10;4.15;;;17.90;92.60;;;;;;5011607;28;20030;-76
2021/09/25 07:21:16;;;;;;;9.20;4.13;;;17.90;92.60;;;;;;5012093;28;20397;-74
2021/09/25 07:23:42;;;;;;;10.48;4.60;;;17.90;92.70;;;;;;5012103;28;20033;-75
2021/09/25 07:26:07;;;;;;;7.53;3.92;;;17.90;92.90;;;;;;5011715;28;20051;-74
2021/09/25 07:28:33;;;;;;;9.50;3.75;;;17.90;92.60;;;;;;5012041;28;20096;-75
2021/09/25 07:31:01;;;;;;;6.18;3.88;;;17.90;92.60;;;;;;5011707;28;20026;-75
2021/09/25 07:33:27;;;;;;;7.53;3.63;;;17.90;92.60;;;;;;5027578;28;20033;-75
2021/09/25 07:35:53;;;;;;;7.82;3.85;;;17.90;92.60;;;;;;5011469;28;20057;-75
2021/09/25 07:38:19;;;;;;;7.95;3.25;;;18.00;92.70;;;;;;5027677;28;20367;-75
2021/09/25 07:40:45;;;;;;;10.43;5.43;;;18.00;92.60;;;;;;5012290;28;20077;-75
2021/09/25 07:43:10;;;;;;;8.27;4.47;;;18.00;92.50;;;;;;5010500;28;20116;-75
2021/09/25 07:45:36;;;;;;;9.10;3.95;;;18.00;92.50;;;;;;5011379;28;20021;-75
2021/09/25 07:48:02;;;;;;;9.13;4.82;;;18.10;92.50;;;;;;5015606;28;20087;-74
2021/09/25 07:50:28;;;;;;;9.18;4.32;;;18.00;92.40;;;;;;5015735;28;20030;-75
2021/09/25 07:52:56;;;;;;;11.13;4.82;;;18.00;92.40;;;;;;5015715;28;20030;-75
2021/09/25 07:55:23;;;;;;;10.20;4.70;;;18.10;92.50;;;;;;5016059;28;20029;-75
2021/09/25 07:57:49;;;;;;;8.27;4.38;;;18.00;92.50;;;;;;5015976;28;20129;-75
2021/09/25 08:00:16;;;;;;;9.00;4.40;;;18.00;92.50;;;;;;5015621;28;20029;-75
2021/09/25 08:02:42;;;;;;;7.50;4.03;;;18.00;92.60;;;;;;5015966;28;20033;-75
2021/09/25 08:05:12;;;;;;;8.32;4.05;;;18.10;92.60;;;;;;5030444;28;20022;-74
2021/09/25 08:07:38;;;;;;;10.13;3.85;;;18.10;92.60;;;;;;5014434;28;20030;-75
2021/09/25 08:10:06;;;;;;;9.48;4.22;;;18.10;92.60;;;;;;5013923;28;20022;-75
2021/09/25 08:12:32;;;;;;;11.85;4.68;;;18.20;92.60;;;;;;5015698;28;20029;-76
2021/09/25 08:14:58;;;;;;;10.73;4.93;;;18.20;92.50;;;;;;5013803;28;20026;-76
2021/09/25 08:17:24;;;;;;;11.50;5.82;;;18.20;92.50;;;;;;5015226;28;20386;-76
2021/09/25 08:19:50;;;;;;;13.75;5.90;;;18.20;92.40;;;;;;5015691;28;20054;-76
2021/09/25 08:22:16;;;;;;;10.10;4.80;;;18.20;92.70;;;;;;5014435;28;20053;-76
2021/09/25 08:24:43;;;;;;;10.35;4.45;;;18.20;92.40;;;;;;5015514;28;20441;-76
2021/09/25 08:27:10;;;;;;;9.13;4.63;;;18.20;92.50;;;;;;5014880;28;20034;-74
2021/09/25 08:29:36;;;;;;;9.23;4.53;;;18.30;92.50;;;;;;5015392;28;20065;-74
2021/09/25 08:32:02;;;;;;;8.73;4.25;;;18.30;92.50;;;;;;5029939;28;20030;-74
2021/09/25 08:34:27;;;;;;;10.73;5.00;;;18.40;92.40;;;;;;5015315;28;20486;-76
2021/09/25 08:36:53;;;;;;;9.65;4.57;;;18.40;92.40;;;;;;5014734;28;20050;-76
2021/09/25 08:39:19;;;;;;;9.05;4.80;;;18.40;92.30;;;;;;5015187;28;20030;-76
2021/09/25 08:41:45;;;;;;;8.23;3.70;;;18.40;92.30;;;;;;5015377;28;20026;-76
2021/09/25 08:44:11;;;;;;;9.90;4.57;;;18.40;92.30;;;;;;5029698;28;20017;-76
2021/09/25 08:46:36;;;;;;;6.35;3.13;;;18.50;92.30;;;;;;5014891;28;20022;-74
2021/09/25 08:49:04;;;;;;;10.48;5.45;;;18.50;92.20;;;;;;5014455;28;20036;-74
2021/09/25 08:51:30;;;;;;;7.93;3.92;;;18.50;92.20;;;;;;5014814;28;20116;-74
2021/09/25 08:53:56;;;;;;;10.88;4.85;;;18.50;92.20;;;;;;5014735;28;20073;-76
2021/09/25 08:56:22;;;;;;;10.90;5.80;;;18.50;92.10;;;;;;5014886;28;20141;-75
2021/09/25 08:58:48;;;;;;;10.02;5.40;;;18.50;92.10;;;;;;5014341;28;20030;-75
2021/09/25 09:01:20;;;;;;;11.88;5.05;;;18.50;92.10;;;;;;5012834;28;20532;-76
2021/09/25 09:03:47;;;;;;;9.50;4.60;;;18.50;92.20;;;;;;5014875;28;20454;-75
2021/09/25 09:06:14;;;;;;;10.30;4.90;;;18.50;92.20;;;;;;5014127;28;20032;-75
2021/09/25 09:08:42;;;;;;;8.18;4.63;;;18.60;92.30;;;;;;5014784;28;20112;-75
2021/09/25 09:11:09;;;;;;;8.13;4.68;;;18.50;92.30;;;;;;5029431;28;20018;-74
2021/09/25 09:13:36;;;;;;;9.20;4.80;;;18.60;92.30;;;;;;5014708;28;20037;-76
2021/09/25 09:16:04;;;;;;;13.43;6.65;;;18.60;92.20;;;;;;5014091;28;20045;-75
2021/09/25 09:18:31;;;;;;;8.43;4.45;;;18.60;92.20;;;;;;5014427;28;20105;-75
2021/09/25 09:21:06;;;;;;;11.23;5.50;;;18.60;92.20;;;;;;5013958;28;20513;-75
2021/09/25 09:23:34;;;;;;;12.02;5.40;;;18.60;92.10;;;;;;5013020;28;20028;-76
2021/09/25 09:26:01;;;;;;;12.35;6.10;;;18.60;92.10;;;;;;5028660;28;20099;-76
2021/09/25 09:28:29;;;;;;;7.75;4.45;;;18.60;92.10;;;;;;5014314;28;20034;-76
2021/09/25 09:30:57;;;;;;;10.70;5.95;;;18.70;92.10;;;;;;5029594;28;20097;-76
2021/09/25 09:33:29;;;;;;;11.75;5.72;;;18.70;92.10;;;;;;5029425;28;20022;-76
2021/09/25 09:36:12;;;;;;;9.02;4.25;;;18.70;92.10;;;;;;5012795;28;20462;-76
2021/09/25 09:38:53;;;;;;;11.45;5.35;;;18.70;92.10;;;;;;5012657;28;20386;-76
2021/09/25 09:41:24;;;;;;;10.93;5.68;;;18.80;92.00;;;;;;5012315;28;20049;-76
2021/09/25 09:43:51;;;;;;;12.52;5.30;;;18.80;92.00;;;;;;5014082;28;20021;-76
2021/09/25 09:46:17;;;;;;;11.80;5.80;;;18.90;91.90;;;;;;5028695;28;20335;-75
2021/09/25 09:48:47;;;;;;;12.52;4.70;;;18.90;91.90;;;;;;5013631;28;20061;-76
2021/09/25 09:51:12;;;;;;;11.23;5.95;;;18.90;91.90;;;;;;5013136;28;20057;-76
2021/09/25 09:53:47;;;;;;;11.68;5.88;;;19.00;91.80;;;;;;5013813;28;20068;-76
2021/09/25 09:56:21;;;;;;;9.88;4.30;;;19.00;91.80;;;;;;5013228;28;20030;-76
2021/09/25 09:59:01;;;;;;;13.30;6.40;;;19.00;91.70;;;;;;5013937;28;20030;-76
2021/09/25 10:01:28;;;;;;;10.82;5.57;;;19.00;91.70;;;;;;5012520;28;20144;-76
2021/09/25 10:03:54;;;;;;;10.40;5.65;;;19.00;91.70;;;;;;5028516;28;20060;-76
2021/09/25 10:06:19;;;;;;;9.90;5.20;;;19.10;91.80;;;;;;5013238;28;20112;-77
2021/09/25 10:08:46;;;;;;;11.23;5.07;;;19.10;91.80;;;;;;5013245;28;20458;-77
2021/09/25 10:11:12;;;;;;;11.07;5.10;;;19.20;91.70;;;;;;5012114;28;20049;-76
2021/09/25 10:13:40;;;;;;;10.80;4.72;;;19.20;91.70;;;;;;5013173;28;20506;-75
2021/09/25 10:16:08;;;;;;;11.90;5.13;;;19.20;91.70;;;;;;5027955;28;20121;-75
2021/09/25 10:18:34;;;;;;;14.57;5.93;;;19.20;91.70;;;;;;5012996;28;20091;-75
2021/09/25 10:21:02;;;;;;;10.50;4.70;;;19.20;91.70;;;;;;5012639;28;20041;-75
2021/09/25 10:23:28;;;;;;;13.52;4.75;;;19.20;91.80;;;;;;5012132;28;20319;-76
2021/09/25 10:25:54;;;;;;;9.40;3.92;;;19.20;91.80;;;;;;5012860;28;20022;-76
2021/09/25 10:28:25;;;;;;;12.13;5.68;;;19.20;91.70;;;;;;5011190;28;20469;-76
2021/09/25 10:30:51;;;;;;;10.93;5.75;;;19.30;91.70;;;;;;5011480;28;20067;-76
2021/09/25 10:33:17;;;;;;;11.55;5.15;;;19.40;91.70;;;;;;5012456;28;20026;-76
2021/09/25 10:35:43;;;;;;;11.27;5.05;;;19.40;91.60;;;;;;5012928;28;20022;-76
2021/09/25 10:38:09;;;;;;;11.23;5.50;;;19.40;91.50;;;;;;5012007;28;20116;-75
2021/09/25 10:40:38;;;;;;;7.93;4.13;;;19.50;91.50;;;;;;5012961;28;20529;-76
2021/09/25 10:43:32;;;;;;;11.10;5.63;;;19.50;91.40;;;;;;5012221;28;20105;-76
2021/09/25 10:46:01;;;;;;;8.45;3.92;;;19.60;91.30;;;;;;5027979;28;20072;-76
2021/09/25 10:48:29;;;;;;;10.73;5.57;;;19.60;91.20;;;;;;5013346;28;20038;-76
2021/09/25 10:50:57;;;;;;;8.80;5.18;;;19.60;91.20;;;;;;5013007;28;20101;-77
2021/09/25 10:53:27;;;;;;;12.90;5.90;;;19.70;91.20;;;;;;5012309;28;20100;-77
2021/09/25 10:55:58;;;;;;;11.82;5.88;;;19.70;91.20;;;;;;5013061;28;20024;-76
2021/09/25 10:58:24;;;;;;;10.73;5.68;;;19.70;91.20;;;;;;5012217;28;20034;-77
2021/09/25 11:01:01;;;;;;;16.48;6.25;;;19.80;91.10;;;;;;5011592;28;20037;-77
2021/09/25 11:06:13;;;;;;;14.65;5.97;;;19.90;91.00;;;;;;5012051;28;20045;-76
2021/09/25 11:08:48;;;;;;;11.70;5.82;;;19.90;91.00;;;;;;5012768;28;20058;-77
2021/09/25 11:11:16;;;;;;;12.38;5.60;;;19.90;90.90;;;;;;5031608;28;20032;-76
2021/09/25 11:14:00;;;;;;;10.60;4.75;;;20.00;90.90;;;;;;5029112;28;20022;-75
2021/09/25 11:17:00;;;;;;;12.80;6.57;;;20.00;90.80;;;;;;5022462;28;20034;-76
2021/09/25 11:19:25;;;;;;;16.52;7.65;;;20.10;90.80;;;;;;5023986;28;20064;-76
2021/09/25 11:22:19;;;;;;;14.73;7.00;;;20.10;90.80;;;;;;5029398;28;20057;-76
2021/09/25 11:24:57;;;;;;;12.98;7.05;;;20.10;90.80;;;;;;5025201;28;20393;-76
2021/09/25 11:27:30;;;;;;;15.48;7.45;;;20.10;90.80;;;;;;5029271;28;20049;-77
2021/09/25 11:30:06;;;;;;;13.30;6.95;;;20.10;90.80;;;;;;5029180;28;20021;-74
2021/09/25 11:32:35;;;;;;;14.95;6.68;;;20.10;90.70;;;;;;5027815;28;20453;-76
2021/09/25 11:35:04;;;;;;;11.07;5.60;;;20.10;90.70;;;;;;5028250;28;20124;-76
2021/09/25 11:37:29;;;;;;;15.50;7.35;;;20.20;90.70;;;;;;5028843;28;20410;-76
2021/09/25 11:39:56;;;;;;;14.25;7.13;;;20.20;90.70;;;;;;5029499;28;20021;-77
2021/09/25 11:42:28;;;;;;;17.27;7.30;;;20.20;90.70;;;;;;5028750;28;20550;-76
2021/09/25 11:44:57;;;;;;;17.50;7.80;;;20.20;90.60;;;;;;5029772;28;20026;-77
2021/09/25 11:47:24;;;;;;;14.30;7.15;;;20.30;90.60;;;;;;5025966;28;20030;-76
2021/09/25 11:49:50;;;;;;;13.73;7.63;;;20.30;90.70;;;;;;5032620;28;20033;-77
2021/09/25 11:52:16;;;;;;;13.00;6.85;;;20.40;90.90;;;;;;5020157;28;20010;-77
2021/09/25 11:54:41;;;;;;;11.55;5.88;;;20.40;90.60;;;;;;5008986;28;20052;-77
2021/09/25 11:57:22;;;;;;;14.80;7.47;;;20.50;90.50;;;;;;5008814;28;20503;-74
2021/09/25 11:59:49;;;;;;;17.75;8.32;;;20.50;90.40;;;;;;5024944;28;20262;-76
2021/09/25 12:02:41;;;;;;;14.77;7.85;;;20.60;90.40;;;;;;5009116;28;20053;-76
2021/09/25 12:05:28;;;;;;;15.07;8.63;;;20.60;90.30;;;;;;5009723;28;20014;-80
2021/09/25 12:07:56;;;;;;;13.90;6.45;;;20.60;90.20;;;;;;5008996;28;20552;-75
2021/09/25 12:10:23;;;;;;;13.48;7.93;;;20.70;90.20;;;;;;5010144;28;20025;-75
2021/09/25 12:13:02;;;;;;;15.77;7.65;;;20.70;90.20;;;;;;5011549;28;20053;-76
2021/09/25 12:15:41;;;;;;;14.88;7.72;;;20.80;90.40;;;;;;5011339;28;20029;-74
2021/09/25 12:18:24;;;;;;;12.43;6.82;;;20.80;90.10;;;;;;5011859;28;20026;-74
2021/09/25 12:20:59;;;;;;;17.98;8.13;;;20.90;90.10;;;;;;5012033;28;20014;-76
2021/09/25 12:23:39;;;;;;;15.52;7.43;;;20.90;90.00;;;;;;5011084;28;20159;-74
2021/09/25 12:26:14;;;;;;;16.87;7.90;;;20.90;90.00;;;;;;5026816;28;20339;-75
2021/09/25 12:28:57;;;;;;;14.93;7.63;;;21.00;89.90;;;;;;5010510;28;20497;-75
2021/09/25 12:31:31;;;;;;;14.13;7.40;;;21.00;89.90;;;;;;5011071;28;20017;-75
2021/09/25 12:34:18;;;;;;;12.43;7.32;;;21.00;90.00;;;;;;5029363;28;20024;-76
2021/09/25 12:36:49;;;;;;;14.30;6.72;;;21.00;90.00;;;;;;5015303;28;20470;-75
2021/09/25 12:39:21;;;;;;;10.95;6.18;;;21.00;90.00;;;;;;5015064;28;20041;-75
2021/09/25 12:41:50;;;;;;;16.77;7.38;;;21.00;90.00;;;;;;5015266;28;20114;-76
2021/09/25 12:44:18;;;;;;;20.65;9.43;;;21.00;90.10;;;;;;5014677;28;20018;-76
2021/09/25 12:46:52;;;;;;;15.90;8.98;;;21.00;90.10;;;;;;5014667;28;20458;-75